createdAt,value
2022-08-14T00:01:00.905Z,1999.90
2022-08-14T00:03:29.278Z,1999.90
2022-08-14T00:05:58.221Z,1999.90
2022-08-14T00:08:44.798Z,1999.90
2022-08-14T00:11:11.695Z,1999.90
2022-08-14T00:13:38.593Z,1999.90
2022-08-14T00:16:04.819Z,1999.90
2022-08-14T00:19:06.113Z,1999.90
2022-08-14T00:21:20.231Z,1999.90
2022-08-14T00:23:54.375Z,1999.90
2022-08-14T00:26:27.685Z,1999.90
2022-08-14T00:28:55.958Z,1999.90
2022-08-14T00:31:30.839Z,1999.90
2022-08-14T00:34:36.957Z,1999.90
2022-08-14T00:36:54.838Z,1999.90
2022-08-14T00:39:25.692Z,1999.90
2022-08-14T00:41:52.053Z,1999.90
2022-08-14T00:44:32.611Z,1999.90
2022-08-14T00:46:59.368Z,1999.90
2022-08-14T00:49:25.551Z,1999.90
2022-08-14T00:51:52.864Z,1999.90
2022-08-14T00:54:21.846Z,1999.90
2022-08-14T00:56:48.502Z,1999.90
2022-08-14T00:59:14.715Z,1999.90
2022-08-14T01:01:42.470Z,1999.90
2022-08-14T01:04:08.762Z,1999.90
2022-08-14T01:06:55.293Z,1999.90
2022-08-14T01:09:21.662Z,1999.90
2022-08-14T01:11:57.328Z,7.72
2022-08-14T01:14:29.751Z,6.47
2022-08-14T01:16:56.127Z,6.50
2022-08-14T01:19:22.322Z,6.03
2022-08-14T01:21:52.968Z,8.27
2022-08-14T01:24:22.884Z,7.20
2022-08-14T01:26:56.921Z,6.40
2022-08-14T01:29:48.658Z,9.77
2022-08-14T01:32:10.512Z,6.97
2022-08-14T01:35:18.013Z,6.80
2022-08-14T01:37:23.099Z,6.75
2022-08-14T01:39:49.351Z,8.48
2022-08-14T01:42:31.495Z,6.72
2022-08-14T01:45:02.129Z,6.50
2022-08-14T01:47:37.067Z,7.07
2022-08-14T01:50:03.779Z,6.13
2022-08-14T01:52:34.080Z,6.63
2022-08-14T01:55:16.326Z,8.40
2022-08-14T01:58:01.069Z,6.45
2022-08-14T02:00:29.446Z,6.70
2022-08-14T02:02:57.299Z,7.85
2022-08-14T02:05:23.927Z,10.27
2022-08-14T02:07:55.750Z,6.78
2022-08-14T02:10:36.608Z,11.45
2022-08-14T02:13:13.088Z,6.50
2022-08-14T02:15:39.305Z,6.47
2022-08-14T02:18:09.638Z,8.93
2022-08-14T02:20:37.503Z,8.80
2022-08-14T02:23:03.694Z,6.50
2022-08-14T02:25:31.102Z,5.90
2022-08-14T02:28:25.235Z,7.20
2022-08-14T02:30:43.564Z,5.78
2022-08-14T02:33:11.630Z,8.25
2022-08-14T02:35:40.765Z,7.55
2022-08-14T02:38:07.332Z,7.47
2022-08-14T02:40:38.172Z,7.93
2022-08-14T02:43:05.526Z,8.25
2022-08-14T02:45:38.800Z,8.00
2022-08-14T02:49:04.728Z,7.07
2022-08-14T02:50:57.208Z,8.25
2022-08-14T02:53:27.241Z,7.30
2022-08-14T02:55:55.722Z,7.03
2022-08-14T02:58:30.580Z,9.10
2022-08-14T03:00:57.512Z,6.97
2022-08-14T03:03:23.811Z,8.85
2022-08-14T03:05:50.737Z,8.13
2022-08-14T03:08:20.470Z,10.18
2022-08-14T03:10:48.702Z,8.60
2022-08-14T03:13:19.736Z,9.18
2022-08-14T03:15:47.478Z,6.53
2022-08-14T03:18:18.502Z,7.90
2022-08-14T03:20:44.841Z,8.65
2022-08-14T03:23:12.610Z,7.55
2022-08-14T03:25:38.795Z,6.20
2022-08-14T03:28:07.001Z,9.77
2022-08-14T03:30:39.602Z,9.55
2022-08-14T03:33:06.997Z,8.95
2022-08-14T03:35:40.400Z,7.50
2022-08-14T03:39:11.719Z,7.45
2022-08-14T03:41:06.435Z,9.95
2022-08-14T03:43:33.267Z,6.57
2022-08-14T03:45:59.699Z,8.07
2022-08-14T03:48:30.245Z,8.02
2022-08-14T03:50:57.563Z,10.05
2022-08-14T03:53:25.100Z,7.65
2022-08-14T03:55:51.360Z,6.95
2022-08-14T03:58:23.726Z,8.50
2022-08-14T04:01:01.515Z,7.43
2022-08-14T04:03:27.746Z,9.98
2022-08-14T04:05:55.310Z,7.53
2022-08-14T04:08:29.441Z,8.50
2022-08-14T04:10:57.098Z,8.38
2022-08-14T04:13:23.735Z,12.15
2022-08-14T04:15:56.177Z,7.88
2022-08-14T04:18:28.413Z,8.73
2022-08-14T04:20:55.985Z,13.35
2022-08-14T04:23:23.786Z,10.25
2022-08-14T04:25:56.263Z,9.35
2022-08-14T04:29:01.923Z,11.18
2022-08-14T04:31:08.843Z,8.75
2022-08-14T04:33:37.294Z,9.50
2022-08-14T04:36:03.649Z,9.48
2022-08-14T04:38:36.596Z,10.68
2022-08-14T04:41:04.546Z,10.15
2022-08-14T04:43:38.623Z,7.82
2022-08-14T04:46:06.798Z,10.23
2022-08-14T04:48:43.466Z,9.20
2022-08-14T04:51:17.177Z,11.48
2022-08-14T04:53:43.698Z,12.48
2022-08-14T04:56:10.721Z,8.95
2022-08-14T04:58:56.481Z,11.13
2022-08-14T05:01:22.749Z,10.27
2022-08-14T05:03:49.027Z,11.77
2022-08-14T05:06:37.248Z,13.65
2022-08-14T05:09:03.063Z,10.02
2022-08-14T05:11:29.263Z,14.65
2022-08-14T05:14:34.116Z,8.43
2022-08-14T05:16:41.826Z,8.75
2022-08-14T05:19:18.973Z,12.05
2022-08-14T05:21:57.554Z,9.70
2022-08-14T05:24:27.089Z,17.45
2022-08-14T05:26:53.316Z,12.63
2022-08-14T05:29:19.557Z,10.50
2022-08-14T05:31:45.889Z,8.80
2022-08-14T05:34:12.076Z,14.32
2022-08-14T05:36:39.400Z,10.63
2022-08-14T05:39:05.729Z,9.52
2022-08-14T05:41:53.656Z,10.68
2022-08-14T05:44:20.388Z,15.18
2022-08-14T05:46:46.666Z,12.40
2022-08-14T05:49:13.066Z,10.05
2022-08-14T05:51:39.264Z,10.88
2022-08-14T05:54:13.611Z,11.70
2022-08-14T05:56:51.598Z,13.93
2022-08-14T05:59:17.921Z,11.18
2022-08-14T06:01:45.626Z,10.52
2022-08-14T06:04:12.856Z,10.70
2022-08-14T06:06:39.044Z,13.15
2022-08-14T06:09:05.345Z,10.35
2022-08-14T06:11:35.953Z,10.57
2022-08-14T06:14:03.683Z,16.38
2022-08-14T06:16:33.081Z,12.55
2022-08-14T06:18:59.565Z,11.15
2022-08-14T06:21:25.937Z,10.93
2022-08-14T06:23:52.250Z,10.30
2022-08-14T06:26:20.582Z,9.57
2022-08-14T06:28:48.445Z,11.45
2022-08-14T06:31:18.720Z,13.60
2022-08-14T06:35:09.882Z,10.10
2022-08-14T06:36:32.854Z,11.18
2022-08-14T06:38:59.024Z,10.45
2022-08-14T06:41:56.915Z,12.68
2022-08-14T06:44:11.669Z,13.77
2022-08-14T06:46:38.237Z,11.85
2022-08-14T06:49:04.414Z,11.80
2022-08-14T06:51:38.679Z,11.07
2022-08-14T06:54:10.941Z,12.55
2022-08-14T06:56:38.245Z,9.23
2022-08-14T06:59:05.364Z,13.13
2022-08-14T07:01:32.443Z,12.40
2022-08-14T07:03:58.641Z,10.48
2022-08-14T07:06:46.530Z,12.48
2022-08-14T07:09:11.683Z,7.88
2022-08-14T07:11:37.871Z,10.20
2022-08-14T07:14:04.089Z,7.10
2022-08-14T07:16:30.401Z,17.95
2022-08-14T07:18:56.548Z,9.27
2022-08-14T07:21:22.707Z,15.65
2022-08-14T07:23:48.886Z,8.38
2022-08-14T07:26:17.757Z,8.25
2022-08-14T07:28:44.087Z,8.00
2022-08-14T07:31:10.359Z,8.90
2022-08-14T07:33:36.524Z,9.77
2022-08-14T07:36:03.365Z,8.13
2022-08-14T07:38:52.334Z,8.60
2022-08-14T07:41:18.717Z,7.57
2022-08-14T07:43:47.640Z,9.23
2022-08-14T07:46:28.361Z,7.85
2022-08-14T07:48:55.002Z,6.43
2022-08-14T07:51:22.151Z,9.18
2022-08-14T07:53:48.520Z,10.93
2022-08-14T07:56:46.958Z,8.82
2022-08-14T07:59:09.266Z,9.40
2022-08-14T08:01:35.460Z,6.60
2022-08-14T08:04:01.620Z,7.45
2022-08-14T08:06:29.597Z,8.20
2022-08-14T08:09:01.404Z,8.00
2022-08-14T08:11:29.594Z,9.00
2022-08-14T08:14:01.253Z,7.63
2022-08-14T08:16:27.756Z,7.07
2022-08-14T08:18:58.286Z,6.95
2022-08-14T08:21:33.402Z,8.40
2022-08-14T08:24:01.778Z,13.77
2022-08-14T08:26:29.821Z,9.00
2022-08-14T08:28:56.146Z,7.82
2022-08-14T08:31:23.796Z,7.32
2022-08-14T08:33:58.934Z,6.22
2022-08-14T08:36:25.234Z,7.72
2022-08-14T08:39:18.871Z,7.57
2022-08-14T08:41:43.455Z,8.05
2022-08-14T08:44:17.427Z,7.82
2022-08-14T08:46:57.212Z,5.85
2022-08-14T08:49:36.377Z,9.82
2022-08-14T08:52:15.217Z,7.47
2022-08-14T08:54:50.995Z,7.40
2022-08-14T08:57:21.518Z,5.70
2022-08-14T08:59:47.887Z,5.20
2022-08-14T09:02:21.579Z,7.85
2022-08-14T09:04:53.541Z,5.63
2022-08-14T09:07:20.067Z,4.80
2022-08-14T09:09:54.543Z,5.10
2022-08-14T09:12:24.957Z,10.88
2022-08-14T09:14:53.325Z,6.88
2022-08-14T09:17:19.494Z,5.95
2022-08-14T09:19:45.701Z,7.35
2022-08-14T09:22:35.281Z,4.85
2022-08-14T09:24:58.118Z,6.22
2022-08-14T09:27:25.850Z,5.90
2022-08-14T09:29:54.133Z,5.20
2022-08-14T09:33:08.976Z,6.18
2022-08-14T09:35:08.476Z,7.45
2022-08-14T09:37:34.880Z,5.60
2022-08-14T09:40:01.092Z,5.38
2022-08-14T09:42:33.434Z,5.63
2022-08-14T09:45:02.919Z,5.25
2022-08-14T09:47:34.395Z,5.22
2022-08-14T09:50:00.605Z,7.80
2022-08-14T09:52:34.175Z,5.55
2022-08-14T09:55:00.965Z,4.55
2022-08-14T09:57:27.517Z,5.72
2022-08-14T09:59:54.006Z,5.80
2022-08-14T10:02:20.382Z,6.97
2022-08-14T10:04:49.975Z,4.60
2022-08-14T10:07:16.350Z,4.32
2022-08-14T10:09:42.512Z,6.63
2022-08-14T10:12:13.314Z,3.53
2022-08-14T10:14:54.846Z,3.88
2022-08-14T10:17:21.039Z,4.38
2022-08-14T10:19:49.216Z,3.80
2022-08-14T10:23:14.696Z,4.05
2022-08-14T10:25:01.563Z,5.93
2022-08-14T10:27:28.153Z,4.00
2022-08-14T10:29:55.121Z,5.15
2022-08-14T10:32:28.621Z,5.13
2022-08-14T10:35:02.668Z,5.18
2022-08-14T10:37:31.545Z,6.35
2022-08-14T10:40:05.286Z,4.82
2022-08-14T10:42:32.099Z,4.10
2022-08-14T10:44:58.896Z,9.85
2022-08-14T10:47:40.690Z,4.40
2022-08-14T10:50:12.205Z,4.15
2022-08-14T10:52:42.298Z,4.70
2022-08-14T10:55:12.798Z,5.00
2022-08-14T10:57:39.426Z,4.15
2022-08-14T11:00:07.083Z,7.10
2022-08-14T11:02:45.084Z,4.03
2022-08-14T11:05:19.458Z,4.47
2022-08-14T11:07:45.621Z,6.20
2022-08-14T11:10:21.431Z,6.32
2022-08-14T11:12:51.332Z,6.20
2022-08-14T11:15:17.496Z,4.78
2022-08-14T11:17:45.950Z,4.45
2022-08-14T11:20:14.018Z,4.40
2022-08-14T11:22:56.510Z,5.22
2022-08-14T11:25:24.883Z,5.70
2022-08-14T11:28:11.013Z,8.35
2022-08-14T11:30:50.374Z,8.37
2022-08-14T11:33:18.683Z,4.03
2022-08-14T11:35:47.592Z,4.25
2022-08-14T11:38:17.012Z,6.80
2022-08-14T11:40:47.015Z,4.80
2022-08-14T11:45:39.968Z,5.00
2022-08-14T11:48:13.597Z,7.40
2022-08-14T11:50:52.327Z,5.10
2022-08-14T11:53:18.508Z,6.10
2022-08-14T11:55:44.693Z,5.15
2022-08-14T11:58:15.767Z,4.45
2022-08-14T12:00:50.705Z,7.27
2022-08-14T12:03:37.380Z,5.00
2022-08-14T12:06:04.333Z,5.20
2022-08-14T12:08:30.485Z,4.00
2022-08-14T12:10:56.664Z,5.53
2022-08-14T12:13:22.860Z,4.35
2022-08-14T12:15:53.651Z,5.50
2022-08-14T12:18:20.032Z,4.43
2022-08-14T12:20:52.439Z,5.80
2022-08-14T12:23:19.477Z,5.63
2022-08-14T12:25:45.644Z,6.22
2022-08-14T12:28:34.075Z,4.82
2022-08-14T12:31:14.025Z,3.90
2022-08-14T12:33:47.037Z,5.38
2022-08-14T12:36:20.508Z,4.27
2022-08-14T12:38:47.040Z,6.10
2022-08-14T12:41:16.467Z,4.85
2022-08-14T12:43:47.135Z,4.53
2022-08-14T12:46:26.799Z,5.07
2022-08-14T12:51:21.589Z,4.57
2022-08-14T12:53:47.981Z,4.78
2022-08-14T12:56:22.674Z,6.85
2022-08-14T12:58:59.218Z,7.50
2022-08-14T13:01:26.091Z,6.95
2022-08-14T13:03:52.456Z,6.65
2022-08-14T13:06:18.643Z,4.90
2022-08-14T13:08:52.643Z,5.47
2022-08-14T13:11:19.650Z,5.55
2022-08-14T13:13:46.600Z,6.80
2022-08-14T13:16:20.984Z,7.30
2022-08-14T13:19:01.422Z,4.70
2022-08-14T13:21:27.615Z,4.78
2022-08-14T13:23:55.494Z,5.05
2022-08-14T13:26:23.771Z,4.88
2022-08-14T13:29:02.297Z,6.05
2022-08-14T13:31:30.069Z,4.15
2022-08-14T13:33:56.569Z,6.70
2022-08-14T13:36:51.942Z,5.05
2022-08-14T13:39:10.486Z,6.22
2022-08-14T13:41:39.087Z,5.00
2022-08-14T13:44:13.615Z,6.13
2022-08-14T13:46:40.284Z,5.43
2022-08-14T13:49:09.926Z,4.67
2022-08-14T13:51:36.084Z,4.57
2022-08-14T13:54:11.016Z,7.85
2022-08-14T13:56:37.526Z,5.15
2022-08-14T13:59:04.621Z,6.85
2022-08-14T14:01:33.888Z,4.78
2022-08-14T14:04:02.491Z,5.20
2022-08-14T14:06:29.969Z,6.10
2022-08-14T14:08:56.149Z,5.32
2022-08-14T14:11:25.364Z,4.00
2022-08-14T14:13:56.165Z,5.18
2022-08-14T14:16:30.111Z,4.28
2022-08-14T14:18:57.486Z,6.45
2022-08-14T14:21:23.735Z,4.38
2022-08-14T14:23:49.970Z,6.93
2022-08-14T14:26:20.000Z,4.32
2022-08-14T14:28:49.570Z,4.68
2022-08-14T14:31:16.468Z,4.68
2022-08-14T14:33:47.740Z,5.65
2022-08-14T14:36:15.038Z,6.65
2022-08-14T14:38:47.248Z,6.55
2022-08-14T14:41:15.462Z,4.13
2022-08-14T14:43:41.643Z,5.20
2022-08-14T14:46:10.813Z,4.10
2022-08-14T14:48:39.480Z,4.07
2022-08-14T14:51:05.671Z,6.72
2022-08-14T14:53:32.226Z,7.95
2022-08-14T14:56:50.877Z,9.43
2022-08-14T14:58:51.594Z,8.10
2022-08-14T15:01:18.841Z,5.10
2022-08-14T15:03:45.553Z,5.53
2022-08-14T15:06:12.732Z,5.78
2022-08-14T15:08:56.511Z,5.60
2022-08-14T15:11:25.806Z,4.53
2022-08-14T15:13:56.385Z,6.78
2022-08-14T15:16:22.596Z,7.72
2022-08-14T15:18:50.996Z,5.53
2022-08-14T15:21:19.061Z,4.97
2022-08-14T15:23:45.881Z,5.47
2022-08-14T15:26:12.044Z,4.95
2022-08-14T15:28:39.642Z,6.13
2022-08-14T15:31:05.837Z,5.53
2022-08-14T15:33:35.798Z,4.95
2022-08-14T15:36:02.123Z,4.97
2022-08-14T15:38:29.299Z,6.85
2022-08-14T15:40:56.233Z,8.10
2022-08-14T15:43:22.614Z,4.75
2022-08-14T15:45:48.858Z,4.22
2022-08-14T15:48:22.349Z,4.15
2022-08-14T15:50:49.243Z,4.13
2022-08-14T15:53:17.216Z,4.78
2022-08-14T15:55:43.418Z,5.60
2022-08-14T15:58:14.266Z,4.28
2022-08-14T16:00:44.412Z,5.63
2022-08-14T16:03:16.877Z,4.75
2022-08-14T16:05:43.182Z,5.00
2022-08-14T16:08:28.807Z,3.85
2022-08-14T16:10:55.781Z,5.57
2022-08-14T16:13:39.613Z,3.75
2022-08-14T16:16:49.279Z,3.55
2022-08-14T16:18:54.441Z,3.28
2022-08-14T16:21:20.667Z,3.95
2022-08-14T16:23:48.072Z,5.97
2022-08-14T16:26:19.929Z,3.00
2022-08-14T16:28:46.257Z,5.40
2022-08-14T16:31:17.510Z,4.63
2022-08-14T16:34:00.192Z,3.95
2022-08-14T16:36:30.449Z,5.05
2022-08-14T16:38:57.518Z,3.88
2022-08-14T16:41:26.533Z,3.78
2022-08-14T16:43:53.062Z,5.75
2022-08-14T16:46:25.602Z,5.65
2022-08-14T16:48:57.070Z,5.20
2022-08-14T16:51:25.076Z,6.18
2022-08-14T16:53:51.315Z,4.50
2022-08-14T16:56:23.743Z,3.85
2022-08-14T16:58:50.351Z,7.45
2022-08-14T17:01:24.670Z,7.30
2022-08-14T17:03:51.496Z,4.97
2022-08-14T17:06:30.818Z,6.50
2022-08-14T17:08:59.985Z,3.95
2022-08-14T17:11:27.738Z,3.92
2022-08-14T17:14:00.283Z,6.20
2022-08-14T17:16:27.471Z,6.63
2022-08-14T17:18:55.434Z,4.72
2022-08-14T17:21:31.348Z,6.38
2022-08-14T17:23:58.264Z,6.18
2022-08-14T17:26:24.599Z,4.25
2022-08-14T17:28:56.658Z,7.22
2022-08-14T17:31:22.987Z,7.13
2022-08-14T17:33:52.433Z,4.90
2022-08-14T17:36:20.927Z,3.57
2022-08-14T17:38:59.612Z,5.25
2022-08-14T17:41:32.721Z,4.45
2022-08-14T17:44:02.352Z,4.55
2022-08-14T17:46:32.551Z,6.72
2022-08-14T17:49:14.229Z,6.45
2022-08-14T17:51:53.687Z,7.90
2022-08-14T17:54:22.825Z,368.92
2022-08-14T17:57:01.276Z,4.68
2022-08-14T17:59:27.507Z,3.50
2022-08-14T18:01:54.539Z,5.15
2022-08-14T18:04:28.424Z,5.18
2022-08-14T18:06:58.514Z,5.03
2022-08-14T18:09:36.265Z,4.30
2022-08-14T18:12:03.556Z,6.40
2022-08-14T18:14:32.875Z,4.40
2022-08-14T18:16:59.768Z,7.47
2022-08-14T18:19:27.072Z,5.53
2022-08-14T18:21:56.934Z,9.27
2022-08-14T18:24:29.773Z,6.03
2022-08-14T18:29:38.010Z,7.10
2022-08-14T18:32:08.771Z,7.18
2022-08-14T18:34:34.954Z,4.45
2022-08-14T18:37:14.349Z,5.63
2022-08-14T18:40:01.815Z,8.82
2022-08-14T18:42:30.715Z,6.20
2022-08-14T18:44:56.961Z,5.30
2022-08-14T18:47:23.165Z,5.97
2022-08-14T18:49:49.406Z,6.47
2022-08-14T18:52:18.930Z,5.72
2022-08-14T18:57:40.591Z,4.93
2022-08-14T19:00:07.231Z,5.65
2022-08-14T19:02:36.055Z,7.10
2022-08-14T19:05:10.265Z,8.13
2022-08-14T19:10:17.293Z,5.13
2022-08-14T19:12:48.730Z,8.55
2022-08-14T19:15:15.174Z,9.70
2022-08-14T19:18:15.047Z,6.95
2022-08-14T19:20:48.133Z,6.80
2022-08-14T19:23:16.679Z,13.52
2022-08-14T19:25:44.416Z,26.23
2022-08-14T19:28:31.029Z,5.78
2022-08-14T19:33:43.045Z,1999.90
2022-08-14T19:36:31.542Z,1999.90
2022-08-14T19:38:59.476Z,6.35
2022-08-14T19:41:29.580Z,21.88
2022-08-14T19:43:57.527Z,1999.90
2022-08-14T19:46:39.512Z,1999.90
2022-08-14T19:49:10.118Z,1999.90
2022-08-14T19:51:37.849Z,1999.90
2022-08-14T19:54:05.707Z,7.30
2022-08-14T19:56:39.830Z,20.25
2022-08-14T19:59:06.121Z,1999.90
2022-08-14T20:01:37.579Z,1999.90
2022-08-14T20:04:04.196Z,33.30
2022-08-14T20:06:31.353Z,1999.90
2022-08-14T20:10:58.350Z,1999.90
2022-08-14T20:12:02.693Z,1999.90
2022-08-14T20:14:30.615Z,1999.90
2022-08-14T20:19:49.596Z,1999.90
2022-08-14T20:22:37.372Z,1999.90
2022-08-14T20:25:05.850Z,1999.90
2022-08-14T20:27:33.711Z,1999.90
2022-08-14T20:30:26.380Z,1999.90
2022-08-14T20:32:47.029Z,1999.90
2022-08-14T20:35:23.983Z,1999.90
2022-08-14T20:38:00.095Z,1999.90
2022-08-14T20:40:38.496Z,1999.90
2022-08-14T20:43:16.796Z,1999.90
2022-08-14T20:45:43.083Z,1999.90
2022-08-14T20:50:53.392Z,1999.90
2022-08-14T20:53:19.577Z,1999.90
2022-08-14T20:55:49.814Z,1999.90
2022-08-14T20:58:38.720Z,1999.90
2022-08-14T21:01:07.301Z,182.40
2022-08-14T21:03:36.079Z,1999.90
2022-08-14T21:06:22.391Z,1999.90
2022-08-14T21:08:49.234Z,1999.90
2022-08-14T21:11:17.842Z,1999.90
2022-08-14T21:14:21.118Z,1999.90
2022-08-14T21:16:35.094Z,1999.90
2022-08-14T21:19:03.943Z,1999.90
2022-08-14T21:21:41.777Z,1999.90
2022-08-14T21:24:08.580Z,1999.90
2022-08-14T21:26:52.574Z,7.70
2022-08-14T21:29:22.815Z,18.75
2022-08-14T21:31:55.670Z,1999.90
2022-08-14T21:34:27.139Z,1999.90
2022-08-14T21:36:57.052Z,1999.90
2022-08-14T21:39:24.134Z,94.70
2022-08-14T21:41:50.552Z,5.90
2022-08-14T21:44:24.820Z,4.95
2022-08-14T21:47:09.726Z,6.43
2022-08-14T21:49:38.942Z,6.63
2022-08-14T21:52:51.454Z,10.45
2022-08-14T21:54:52.697Z,18.10
2022-08-14T21:57:19.831Z,20.30
2022-08-14T22:00:30.250Z,1999.90
2022-08-14T22:02:52.184Z,1999.90
2022-08-14T22:05:22.963Z,1999.90
2022-08-14T22:07:55.266Z,8.90
2022-08-14T22:10:24.262Z,6.93
2022-08-14T22:13:00.634Z,5.97
2022-08-14T22:15:27.784Z,26.02
2022-08-14T22:17:54.454Z,10.48
2022-08-14T22:20:21.131Z,9.27
2022-08-14T22:22:47.445Z,6.57
2022-08-14T22:25:17.449Z,9.60
2022-08-14T22:27:44.263Z,9.40
2022-08-14T22:30:22.650Z,6.60
2022-08-14T22:32:57.933Z,9.23
2022-08-14T22:35:24.623Z,9.10
2022-08-14T22:38:36.469Z,7.28
2022-08-14T22:40:59.444Z,7.93
2022-08-14T22:43:23.348Z,10.05
2022-08-14T22:45:55.409Z,6.93
2022-08-14T22:48:22.172Z,8.95
2022-08-14T22:50:53.342Z,13.18
2022-08-14T22:53:20.023Z,9.50
2022-08-14T22:55:46.228Z,10.23
2022-08-14T22:58:17.267Z,11.75
2022-08-14T23:00:43.807Z,23.80
2022-08-14T23:03:17.393Z,1999.90
2022-08-14T23:05:52.496Z,1999.90
2022-08-14T23:08:59.556Z,10.38
2022-08-14T23:11:05.636Z,1999.90
2022-08-14T23:13:32.656Z,1999.90
2022-08-14T23:15:59.414Z,1999.90
2022-08-14T23:18:29.452Z,1999.90
2022-08-14T23:20:56.190Z,1999.90
2022-08-14T23:23:23.274Z,1999.90
2022-08-14T23:25:59.024Z,1999.90
2022-08-14T23:28:33.346Z,1999.90
2022-08-14T23:31:14.067Z,1999.90
2022-08-14T23:33:45.746Z,1999.90
2022-08-14T23:36:31.840Z,1999.90
2022-08-14T23:38:58.746Z,1999.90
2022-08-14T23:41:24.991Z,153.52
2022-08-14T23:43:51.571Z,1999.90
2022-08-14T23:46:18.623Z,1999.90
2022-08-14T23:48:46.443Z,1999.90
2022-08-14T23:51:13.275Z,8.95
2022-08-14T23:53:48.449Z,10.73
2022-08-14T23:56:16.080Z,7.53
2022-08-14T23:58:44.247Z,6.85
